Terminal Aerodrome Forecast
Issued by NWS

Home | Current Version | Previous Version | Text Only | Print | Product List | Glossary On
Versions: 1 2 3 4 5 6 7 8 9 10 11 12 13 14 15 16 17 18 19 20 21 22 23 24 25 26
556
FTUS41 KBUF 061516 AAA
TAFJHW
TAF AMD
KJHW 061516Z 0615/0712 13010KT P6SM BKN200
     FM061600 13014KT P6SM SCT080 OVC200
     FM062000 14016KT 4SM -RASN SCT015 BKN025
     FM062300 15012KT 2SM -SNRA OVC007
     FM070600 20010KT 2SM -DZ BR OVC007
     FM071000 24010KT 2SM -DZ BR OVC015
      AMD LTD TO CLD VIS AND WIND=

USA.gov is the U.S. government's official web portal to all federal, state and local government web resources and services.